sensor_id;sensor_type;location;lat;lon;timestamp;pressure;altitude;pressure_sealevel;temperature
37452;BMP280;23314;51.114;6.900;2023-07-13T00:02:22;101218.16;;;18.25
37452;BMP280;23314;51.114;6.900;2023-07-13T00:04:48;101231.19;;;18.27
37452;BMP280;23314;51.114;6.900;2023-07-13T00:07:14;101229.69;;;18.26
37452;BMP280;23314;51.114;6.900;2023-07-13T00:09:40;101226.53;;;18.27
37452;BMP280;23314;51.114;6.900;2023-07-13T00:12:27;101233.59;;;18.24
37452;BMP280;23314;51.114;6.900;2023-07-13T00:14:56;101235.84;;;18.26
37452;BMP280;23314;51.114;6.900;2023-07-13T00:17:22;101231.19;;;18.27
37452;BMP280;23314;51.114;6.900;2023-07-13T00:19:47;101231.94;;;18.27
37452;BMP280;23314;51.114;6.900;2023-07-13T00:22:13;101238.53;;;18.26
37452;BMP280;23314;51.114;6.900;2023-07-13T00:24:38;101239.75;;;18.25
37452;BMP280;23314;51.114;6.900;2023-07-13T00:27:10;101230.13;;;18.24
37452;BMP280;23314;51.114;6.900;2023-07-13T00:29:36;101232.53;;;18.22
37452;BMP280;23314;51.114;6.900;2023-07-13T00:32:04;101232.53;;;18.22
37452;BMP280;23314;51.114;6.900;2023-07-13T00:34:30;101231.47;;;18.19
37452;BMP280;23314;51.114;6.900;2023-07-13T00:36:56;101229.25;;;18.18
37452;BMP280;23314;51.114;6.900;2023-07-13T00:39:21;101233.13;;;18.17
37452;BMP280;23314;51.114;6.900;2023-07-13T00:41:48;101230.84;;;18.15
37452;BMP280;23314;51.114;6.900;2023-07-13T00:44:14;101234.31;;;18.16
37452;BMP280;23314;51.114;6.900;2023-07-13T00:46:40;101230.25;;;18.11
37452;BMP280;23314;51.114;6.900;2023-07-13T00:49:08;101237.59;;;18.11
37452;BMP280;23314;51.114;6.900;2023-07-13T00:51:46;101231.47;;;18.10
37452;BMP280;23314;51.114;6.900;2023-07-13T00:54:15;101225.59;;;18.12
37452;BMP280;23314;51.114;6.900;2023-07-13T00:56:45;101228.31;;;18.12
37452;BMP280;23314;51.114;6.900;2023-07-13T00:59:13;101231.00;;;18.12
37452;BMP280;23314;51.114;6.900;2023-07-13T01:01:39;101231.16;;;18.08
37452;BMP280;23314;51.114;6.900;2023-07-13T01:04:05;101226.19;;;18.06
37452;BMP280;23314;51.114;6.900;2023-07-13T01:06:35;101224.66;;;18.05
37452;BMP280;23314;51.114;6.900;2023-07-13T01:09:02;101219.28;;;18.05
37452;BMP280;23314;51.114;6.900;2023-07-13T01:11:27;101225.84;;;18.04
37452;BMP280;23314;51.114;6.900;2023-07-13T01:13:53;101222.75;;;18.06
37452;BMP280;23314;51.114;6.900;2023-07-13T01:16:26;101218.53;;;18.05
37452;BMP280;23314;51.114;6.900;2023-07-13T01:18:51;101220.16;;;18.02
37452;BMP280;23314;51.114;6.900;2023-07-13T01:21:17;101225.13;;;18.04
37452;BMP280;23314;51.114;6.900;2023-07-13T01:23:44;101224.09;;;18.01
37452;BMP280;23314;51.114;6.900;2023-07-13T01:26:09;101227.97;;;18.00
37452;BMP280;23314;51.114;6.900;2023-07-13T01:28:35;101226.16;;;17.97
37452;BMP280;23314;51.114;6.900;2023-07-13T01:31:02;101222.84;;;17.93
37452;BMP280;23314;51.114;6.900;2023-07-13T01:33:28;101222.97;;;17.89
37452;BMP280;23314;51.114;6.900;2023-07-13T01:35:54;101230.00;;;17.87
37452;BMP280;23314;51.114;6.900;2023-07-13T01:38:21;101221.59;;;17.85
37452;BMP280;23314;51.114;6.900;2023-07-13T01:40:47;101232.53;;;17.81
37452;BMP280;23314;51.114;6.900;2023-07-13T01:43:12;101229.53;;;17.79
37452;BMP280;23314;51.114;6.900;2023-07-13T01:45:38;101228.47;;;17.77
37452;BMP280;23314;51.114;6.900;2023-07-13T01:48:04;101233.13;;;17.76
37452;BMP280;23314;51.114;6.900;2023-07-13T01:50:31;101233.56;;;17.75
37452;BMP280;23314;51.114;6.900;2023-07-13T01:52:57;101225.59;;;17.71
37452;BMP280;23314;51.114;6.900;2023-07-13T01:55:22;101223.78;;;17.68
37452;BMP280;23314;51.114;6.900;2023-07-13T01:57:48;101229.19;;;17.68
37452;BMP280;23314;51.114;6.900;2023-07-13T02:00:14;101225.41;;;17.65
37452;BMP280;23314;51.114;6.900;2023-07-13T02:02:40;101231.69;;;17.62
37452;BMP280;23314;51.114;6.900;2023-07-13T02:05:06;101238.72;;;17.60
37452;BMP280;23314;51.114;6.900;2023-07-13T02:07:32;101231.94;;;17.55
37452;BMP280;23314;51.114;6.900;2023-07-13T02:09:57;101224.75;;;17.52
37452;BMP280;23314;51.114;6.900;2023-07-13T02:12:22;101234.47;;;17.49
37452;BMP280;23314;51.114;6.900;2023-07-13T02:14:48;101225.75;;;17.45
37452;BMP280;23314;51.114;6.900;2023-07-13T02:17:13;101232.03;;;17.42
37452;BMP280;23314;51.114;6.900;2023-07-13T02:19:39;101241.31;;;17.41
37452;BMP280;23314;51.114;6.900;2023-07-13T02:22:04;101231.44;;;17.38
37452;BMP280;23314;51.114;6.900;2023-07-13T02:24:29;101243.69;;;17.39
37452;BMP280;23314;51.114;6.900;2023-07-13T02:26:55;101238.31;;;17.39
37452;BMP280;23314;51.114;6.900;2023-07-13T02:29:20;101239.53;;;17.38
37452;BMP280;23314;51.114;6.900;2023-07-13T02:31:45;101248.03;;;17.36
37452;BMP280;23314;51.114;6.900;2023-07-13T02:34:11;101246.50;;;17.35
37452;BMP280;23314;51.114;6.900;2023-07-13T02:36:36;101237.38;;;17.33
37452;BMP280;23314;51.114;6.900;2023-07-13T02:39:03;101236.63;;;17.32
37452;BMP280;23314;51.114;6.900;2023-07-13T02:41:29;101237.78;;;17.31
37452;BMP280;23314;51.114;6.900;2023-07-13T02:43:54;101243.34;;;17.28
37452;BMP280;23314;51.114;6.900;2023-07-13T02:46:28;101238.78;;;17.25
37452;BMP280;23314;51.114;6.900;2023-07-13T02:48:54;101245.84;;;17.22
37452;BMP280;23314;51.114;6.900;2023-07-13T02:51:19;101246.59;;;17.23
37452;BMP280;23314;51.114;6.900;2023-07-13T02:53:44;101258.22;;;17.19
37452;BMP280;23314;51.114;6.900;2023-07-13T02:56:10;101255.66;;;17.16
37452;BMP280;23314;51.114;6.900;2023-07-13T02:58:35;101246.84;;;17.15
37452;BMP280;23314;51.114;6.900;2023-07-13T03:01:06;101243.50;;;17.11
37452;BMP280;23314;51.114;6.900;2023-07-13T03:03:31;101242.41;;;17.09
37452;BMP280;23314;51.114;6.900;2023-07-13T03:05:59;101241.38;;;17.06
37452;BMP280;23314;51.114;6.900;2023-07-13T03:08:25;101252.59;;;17.04
37452;BMP280;23314;51.114;6.900;2023-07-13T03:11:02;101256.47;;;17.03
37452;BMP280;23314;51.114;6.900;2023-07-13T03:13:28;101257.66;;;17.02
37452;BMP280;23314;51.114;6.900;2023-07-13T03:15:53;101258.09;;;17.01
37452;BMP280;23314;51.114;6.900;2023-07-13T03:18:18;101259.72;;;16.98
37452;BMP280;23314;51.114;6.900;2023-07-13T03:20:44;101259.72;;;16.98
37452;BMP280;23314;51.114;6.900;2023-07-13T03:23:09;101260.16;;;16.97
37452;BMP280;23314;51.114;6.900;2023-07-13T03:25:34;101257.91;;;16.95
37452;BMP280;23314;51.114;6.900;2023-07-13T03:28:00;101256.81;;;16.93
37452;BMP280;23314;51.114;6.900;2023-07-13T03:30:25;101265.34;;;16.91
37452;BMP280;23314;51.114;6.900;2023-07-13T03:32:50;101265.34;;;16.91
37452;BMP280;23314;51.114;6.900;2023-07-13T03:35:16;101265.03;;;16.89
37452;BMP280;23314;51.114;6.900;2023-07-13T03:37:41;101261.59;;;16.88
37452;BMP280;23314;51.114;6.900;2023-07-13T03:40:08;101266.53;;;16.90
37452;BMP280;23314;51.114;6.900;2023-07-13T03:42:34;101271.50;;;16.92
37452;BMP280;23314;51.114;6.900;2023-07-13T03:45:00;101269.13;;;16.94
37452;BMP280;23314;51.114;6.900;2023-07-13T03:47:25;101268.69;;;16.95
37452;BMP280;23314;51.114;6.900;2023-07-13T03:49:51;101272.75;;;17.00
37452;BMP280;23314;51.114;6.900;2023-07-13T03:52:16;101283.88;;;17.02
37452;BMP280;23314;51.114;6.900;2023-07-13T03:54:41;101280.28;;;17.05
37452;BMP280;23314;51.114;6.900;2023-07-13T03:57:07;101286.31;;;17.09
37452;BMP280;23314;51.114;6.900;2023-07-13T03:59:33;101278.41;;;17.15
37452;BMP280;23314;51.114;6.900;2023-07-13T04:01:59;101284.00;;;17.20
37452;BMP280;23314;51.114;6.900;2023-07-13T04:04:24;101285.81;;;17.24
37452;BMP280;23314;51.114;6.900;2023-07-13T04:06:49;101289.16;;;17.28
37452;BMP280;23314;51.114;6.900;2023-07-13T04:09:14;101290.53;;;17.32
37452;BMP280;23314;51.114;6.900;2023-07-13T04:11:40;101296.56;;;17.36
37452;BMP280;23314;51.114;6.900;2023-07-13T04:14:05;101294.50;;;17.41
37452;BMP280;23314;51.114;6.900;2023-07-13T04:16:31;101293.19;;;17.45
37452;BMP280;23314;51.114;6.900;2023-07-13T04:18:56;101296.81;;;17.51
37452;BMP280;23314;51.114;6.900;2023-07-13T04:21:29;101296.59;;;17.59
37452;BMP280;23314;51.114;6.900;2023-07-13T04:23:55;101304.84;;;17.86
37452;BMP280;23314;51.114;6.900;2023-07-13T04:26:21;101301.91;;;18.44
37452;BMP280;23314;51.114;6.900;2023-07-13T04:28:48;101304.56;;;18.94
37452;BMP280;23314;51.114;6.900;2023-07-13T04:31:14;101311.91;;;19.39
37452;BMP280;23314;51.114;6.900;2023-07-13T04:33:39;101314.66;;;19.82
37452;BMP280;23314;51.114;6.900;2023-07-13T04:36:06;101312.91;;;20.12
37452;BMP280;23314;51.114;6.900;2023-07-13T04:38:32;101313.47;;;20.41
37452;BMP280;23314;51.114;6.900;2023-07-13T04:41:03;101317.28;;;20.58
37452;BMP280;23314;51.114;6.900;2023-07-13T04:43:31;101311.63;;;20.71
37452;BMP280;23314;51.114;6.900;2023-07-13T04:45:57;101315.16;;;20.87
37452;BMP280;23314;51.114;6.900;2023-07-13T04:48:23;101317.59;;;20.99
37452;BMP280;23314;51.114;6.900;2023-07-13T04:50:55;101318.41;;;21.06
37452;BMP280;23314;51.114;6.900;2023-07-13T04:53:21;101316.47;;;21.06
37452;BMP280;23314;51.114;6.900;2023-07-13T04:55:46;101318.13;;;20.89
37452;BMP280;23314;51.114;6.900;2023-07-13T04:58:12;101319.75;;;20.95
37452;BMP280;23314;51.114;6.900;2023-07-13T05:00:38;101318.25;;;20.94
37452;BMP280;23314;51.114;6.900;2023-07-13T05:03:03;101319.91;;;20.92
37452;BMP280;23314;51.114;6.900;2023-07-13T05:05:29;101324.66;;;20.82
37452;BMP280;23314;51.114;6.900;2023-07-13T05:07:54;101323.69;;;20.70
37452;BMP280;23314;51.114;6.900;2023-07-13T05:10:20;101330.75;;;20.53
37452;BMP280;23314;51.114;6.900;2023-07-13T05:12:46;101325.63;;;20.45
37452;BMP280;23314;51.114;6.900;2023-07-13T05:15:11;101321.03;;;20.37
37452;BMP280;23314;51.114;6.900;2023-07-13T05:17:37;101321.41;;;20.29
37452;BMP280;23314;51.114;6.900;2023-07-13T05:20:05;101325.19;;;20.23
37452;BMP280;23314;51.114;6.900;2023-07-13T05:22:30;101324.44;;;20.22
37452;BMP280;23314;51.114;6.900;2023-07-13T05:24:56;101330.13;;;20.24
37452;BMP280;23314;51.114;6.900;2023-07-13T05:27:21;101324.84;;;20.30
37452;BMP280;23314;51.114;6.900;2023-07-13T05:29:46;101336.09;;;20.38
37452;BMP280;23314;51.114;6.900;2023-07-13T05:32:12;101333.03;;;20.45
37452;BMP280;23314;51.114;6.900;2023-07-13T05:34:37;101337.66;;;20.54
37452;BMP280;23314;51.114;6.900;2023-07-13T05:37:03;101339.53;;;20.62
37452;BMP280;23314;51.114;6.900;2023-07-13T05:39:28;101347.69;;;20.62
37452;BMP280;23314;51.114;6.900;2023-07-13T05:41:54;101345.53;;;20.67
37452;BMP280;23314;51.114;6.900;2023-07-13T05:44:19;101357.72;;;20.71
37452;BMP280;23314;51.114;6.900;2023-07-13T05:46:45;101361.50;;;20.74
37452;BMP280;23314;51.114;6.900;2023-07-13T05:49:10;101354.41;;;20.67
37452;BMP280;23314;51.114;6.900;2023-07-13T05:51:36;101355.81;;;20.62
37452;BMP280;23314;51.114;6.900;2023-07-13T05:54:01;101356.47;;;20.57
37452;BMP280;23314;51.114;6.900;2023-07-13T05:56:26;101370.00;;;20.57
37452;BMP280;23314;51.114;6.900;2023-07-13T05:58:52;101357.94;;;20.58
37452;BMP280;23314;51.114;6.900;2023-07-13T06:01:17;101366.59;;;20.47
37452;BMP280;23314;51.114;6.900;2023-07-13T06:03:45;101363.88;;;20.47
37452;BMP280;23314;51.114;6.900;2023-07-13T06:06:11;101367.31;;;20.57
37452;BMP280;23314;51.114;6.900;2023-07-13T06:08:37;101370.69;;;20.67
37452;BMP280;23314;51.114;6.900;2023-07-13T06:13:32;101373.56;;;21.12
37452;BMP280;23314;51.114;6.900;2023-07-13T06:15:58;101376.66;;;21.20
37452;BMP280;23314;51.114;6.900;2023-07-13T06:18:24;101369.22;;;21.05
37452;BMP280;23314;51.114;6.900;2023-07-13T06:20:49;101376.16;;;21.06
37452;BMP280;23314;51.114;6.900;2023-07-13T06:23:14;101383.72;;;21.02
37452;BMP280;23314;51.114;6.900;2023-07-13T06:25:40;101388.69;;;21.04
37452;BMP280;23314;51.114;6.900;2023-07-13T06:28:05;101389.94;;;21.17
37452;BMP280;23314;51.114;6.900;2023-07-13T06:30:31;101383.88;;;21.38
37452;BMP280;23314;51.114;6.900;2023-07-13T06:32:57;101393.59;;;21.44
37452;BMP280;23314;51.114;6.900;2023-07-13T06:35:22;101385.88;;;21.37
37452;BMP280;23314;51.114;6.900;2023-07-13T06:37:48;101392.09;;;21.43
37452;BMP280;23314;51.114;6.900;2023-07-13T06:40:13;101391.00;;;21.50
37452;BMP280;23314;51.114;6.900;2023-07-13T06:42:38;101394.66;;;21.62
37452;BMP280;23314;51.114;6.900;2023-07-13T06:45:04;101396.63;;;21.76
37452;BMP280;23314;51.114;6.900;2023-07-13T06:47:29;101396.72;;;21.82
37452;BMP280;23314;51.114;6.900;2023-07-13T06:49:55;101388.19;;;21.89
37452;BMP280;23314;51.114;6.900;2023-07-13T06:52:20;101393.41;;;22.08
37452;BMP280;23314;51.114;6.900;2023-07-13T06:54:45;101398.13;;;22.28
37452;BMP280;23314;51.114;6.900;2023-07-13T06:57:10;101398.00;;;22.57
37452;BMP280;23314;51.114;6.900;2023-07-13T06:59:36;101401.13;;;22.91
37452;BMP280;23314;51.114;6.900;2023-07-13T07:02:01;101398.22;;;23.21
37452;BMP280;23314;51.114;6.900;2023-07-13T07:04:27;101395.28;;;23.51
37452;BMP280;23314;51.114;6.900;2023-07-13T07:06:52;101398.19;;;23.79
37452;BMP280;23314;51.114;6.900;2023-07-13T07:09:17;101404.59;;;24.08
37452;BMP280;23314;51.114;6.900;2023-07-13T07:11:43;101401.75;;;24.40
37452;BMP280;23314;51.114;6.900;2023-07-13T07:14:08;101402.88;;;24.71
37452;BMP280;23314;51.114;6.900;2023-07-13T07:16:33;101408.63;;;24.84
37452;BMP280;23314;51.114;6.900;2023-07-13T07:18:59;101410.31;;;24.82
37452;BMP280;23314;51.114;6.900;2023-07-13T07:21:24;101407.63;;;24.93
37452;BMP280;23314;51.114;6.900;2023-07-13T07:23:49;101414.81;;;24.96
37452;BMP280;23314;51.114;6.900;2023-07-13T07:26:15;101409.06;;;24.72
37452;BMP280;23314;51.114;6.900;2023-07-13T07:28:40;101414.50;;;24.60
37452;BMP280;23314;51.114;6.900;2023-07-13T07:31:05;101418.44;;;24.65
37452;BMP280;23314;51.114;6.900;2023-07-13T07:35:57;101414.94;;;24.47
37452;BMP280;23314;51.114;6.900;2023-07-13T07:38:23;101423.34;;;24.44
37452;BMP280;23314;51.114;6.900;2023-07-13T07:40:48;101417.16;;;24.49
37452;BMP280;23314;51.114;6.900;2023-07-13T07:45:39;101429.56;;;24.50
37452;BMP280;23314;51.114;6.900;2023-07-13T07:48:05;101420.91;;;24.51
37452;BMP280;23314;51.114;6.900;2023-07-13T07:50:31;101418.50;;;24.71
37452;BMP280;23314;51.114;6.900;2023-07-13T07:52:57;101418.75;;;24.73
37452;BMP280;23314;51.114;6.900;2023-07-13T07:55:23;101421.69;;;24.63
37452;BMP280;23314;51.114;6.900;2023-07-13T07:57:50;101428.31;;;24.51
37452;BMP280;23314;51.114;6.900;2023-07-13T08:00:16;101419.59;;;24.36
37452;BMP280;23314;51.114;6.900;2023-07-13T08:02:42;101422.81;;;24.34
37452;BMP280;23314;51.114;6.900;2023-07-13T08:05:08;101426.28;;;24.34
37452;BMP280;23314;51.114;6.900;2023-07-13T08:07:34;101414.84;;;24.30
37452;BMP280;23314;51.114;6.900;2023-07-13T08:10:00;101427.28;;;24.37
37452;BMP280;23314;51.114;6.900;2023-07-13T08:12:25;101427.59;;;24.50
37452;BMP280;23314;51.114;6.900;2023-07-13T08:14:51;101426.88;;;24.61
37452;BMP280;23314;51.114;6.900;2023-07-13T08:17:19;101425.97;;;24.81
37452;BMP280;23314;51.114;6.900;2023-07-13T08:19:45;101421.06;;;25.08
37452;BMP280;23314;51.114;6.900;2023-07-13T08:22:11;101418.34;;;25.14
37452;BMP280;23314;51.114;6.900;2023-07-13T08:24:37;101421.06;;;25.19
37452;BMP280;23314;51.114;6.900;2023-07-13T08:27:02;101428.28;;;25.45
37452;BMP280;23314;51.114;6.900;2023-07-13T08:29:28;101415.84;;;25.50
37452;BMP280;23314;51.114;6.900;2023-07-13T08:31:53;101419.81;;;25.66
37452;BMP280;23314;51.114;6.900;2023-07-13T08:34:19;101417.28;;;25.73
37452;BMP280;23314;51.114;6.900;2023-07-13T08:36:45;101417.09;;;25.66
37452;BMP280;23314;51.114;6.900;2023-07-13T08:39:10;101421.56;;;25.69
37452;BMP280;23314;51.114;6.900;2023-07-13T08:41:36;101413.63;;;25.65
37452;BMP280;23314;51.114;6.900;2023-07-13T08:44:03;101414.09;;;25.69
37452;BMP280;23314;51.114;6.900;2023-07-13T08:46:37;101413.34;;;25.86
37452;BMP280;23314;51.114;6.900;2023-07-13T08:49:08;101418.22;;;26.10
37452;BMP280;23314;51.114;6.900;2023-07-13T08:51:55;101408.75;;;26.17
37452;BMP280;23314;51.114;6.900;2023-07-13T08:54:38;101408.00;;;26.16
37452;BMP280;23314;51.114;6.900;2023-07-13T08:57:14;101415.47;;;26.16
37452;BMP280;23314;51.114;6.900;2023-07-13T08:59:39;101407.78;;;26.08
37452;BMP280;23314;51.114;6.900;2023-07-13T09:02:22;101407.28;;;26.16
37452;BMP280;23314;51.114;6.900;2023-07-13T09:04:54;101401.25;;;26.23
37452;BMP280;23314;51.114;6.900;2023-07-13T09:07:26;101417.38;;;26.32
37452;BMP280;23314;51.114;6.900;2023-07-13T09:10:13;101413.56;;;26.52
37452;BMP280;23314;51.114;6.900;2023-07-13T09:13:11;101417.69;;;26.70
37452;BMP280;23314;51.114;6.900;2023-07-13T09:15:41;101415.97;;;26.67
37452;BMP280;23314;51.114;6.900;2023-07-13T09:18:51;101424.25;;;26.92
37452;BMP280;23314;51.114;6.900;2023-07-13T09:20:59;101410.72;;;27.05
37452;BMP280;23314;51.114;6.900;2023-07-13T09:23:29;101420.25;;;26.98
37452;BMP280;23314;51.114;6.900;2023-07-13T09:26:01;101424.41;;;27.11
37452;BMP280;23314;51.114;6.900;2023-07-13T09:28:34;101417.09;;;27.19
37452;BMP280;23314;51.114;6.900;2023-07-13T09:31:03;101425.75;;;27.29
37452;BMP280;23314;51.114;6.900;2023-07-13T09:33:30;101411.19;;;27.39
37452;BMP280;23314;51.114;6.900;2023-07-13T09:35:57;101419.03;;;27.54
37452;BMP280;23314;51.114;6.900;2023-07-13T09:38:25;101422.56;;;27.49
37452;BMP280;23314;51.114;6.900;2023-07-13T09:41:21;101415.69;;;27.37
37452;BMP280;23314;51.114;6.900;2023-07-13T09:46:35;101423.19;;;27.61
37452;BMP280;23314;51.114;6.900;2023-07-13T09:49:00;101419.91;;;27.68
37452;BMP280;23314;51.114;6.900;2023-07-13T09:51:26;101432.75;;;27.73
37452;BMP280;23314;51.114;6.900;2023-07-13T09:53:51;101428.38;;;27.65
37452;BMP280;23314;51.114;6.900;2023-07-13T09:56:34;101428.53;;;27.53
37452;BMP280;23314;51.114;6.900;2023-07-13T09:59:00;101432.91;;;27.62
37452;BMP280;23314;51.114;6.900;2023-07-13T10:01:37;101430.03;;;27.73
37452;BMP280;23314;51.114;6.900;2023-07-13T10:04:11;101428.44;;;27.84
37452;BMP280;23314;51.114;6.900;2023-07-13T10:06:39;101434.81;;;27.73
37452;BMP280;23314;51.114;6.900;2023-07-13T10:09:07;101435.75;;;27.75
37452;BMP280;23314;51.114;6.900;2023-07-13T10:11:35;101422.28;;;27.77
37452;BMP280;23314;51.114;6.900;2023-07-13T10:14:02;101436.84;;;27.91
37452;BMP280;23314;51.114;6.900;2023-07-13T10:16:30;101426.38;;;28.09
37452;BMP280;23314;51.114;6.900;2023-07-13T10:19:02;101427.00;;;28.21
37452;BMP280;23314;51.114;6.900;2023-07-13T10:21:32;101430.13;;;28.30
37452;BMP280;23314;51.114;6.900;2023-07-13T10:24:09;101433.16;;;28.27
37452;BMP280;23314;51.114;6.900;2023-07-13T10:26:39;101423.91;;;28.30
37452;BMP280;23314;51.114;6.900;2023-07-13T10:29:11;101434.44;;;28.45
37452;BMP280;23314;51.114;6.900;2023-07-13T10:31:40;101428.75;;;28.56
37452;BMP280;23314;51.114;6.900;2023-07-13T10:34:09;101433.38;;;28.48
37452;BMP280;23314;51.114;6.900;2023-07-13T10:36:40;101427.34;;;28.49
37452;BMP280;23314;51.114;6.900;2023-07-13T10:39:17;101438.69;;;28.78
37452;BMP280;23314;51.114;6.900;2023-07-13T10:41:44;101433.50;;;28.75
37452;BMP280;23314;51.114;6.900;2023-07-13T10:44:19;101429.72;;;28.78
37452;BMP280;23314;51.114;6.900;2023-07-13T10:46:46;101435.56;;;28.55
37452;BMP280;23314;51.114;6.900;2023-07-13T10:49:11;101434.56;;;28.52
37452;BMP280;23314;51.114;6.900;2023-07-13T10:51:38;101436.41;;;28.63
37452;BMP280;23314;51.114;6.900;2023-07-13T10:54:22;101433.13;;;28.65
37452;BMP280;23314;51.114;6.900;2023-07-13T10:57:14;101446.06;;;28.51
37452;BMP280;23314;51.114;6.900;2023-07-13T10:59:42;101455.13;;;28.27
37452;BMP280;23314;51.114;6.900;2023-07-13T11:02:24;101444.31;;;27.91
37452;BMP280;23314;51.114;6.900;2023-07-13T11:04:52;101445.19;;;27.55
37452;BMP280;23314;51.114;6.900;2023-07-13T11:07:25;101455.28;;;27.41
37452;BMP280;23314;51.114;6.900;2023-07-13T11:09:58;101443.84;;;27.37
37452;BMP280;23314;51.114;6.900;2023-07-13T11:20:09;101445.31;;;27.08
37452;BMP280;23314;51.114;6.900;2023-07-13T11:25:41;101445.47;;;26.85
37452;BMP280;23314;51.114;6.900;2023-07-13T11:30:59;101434.56;;;26.80
37452;BMP280;23314;51.114;6.900;2023-07-13T11:33:43;101441.16;;;27.01
37452;BMP280;23314;51.114;6.900;2023-07-13T11:36:16;101444.63;;;27.02
37452;BMP280;23314;51.114;6.900;2023-07-13T11:38:43;101441.03;;;26.77
37452;BMP280;23314;51.114;6.900;2023-07-13T11:41:16;101444.13;;;26.62
37452;BMP280;23314;51.114;6.900;2023-07-13T11:43:42;101437.16;;;26.55
37452;BMP280;23314;51.114;6.900;2023-07-13T11:46:22;101444.66;;;26.55
37452;BMP280;23314;51.114;6.900;2023-07-13T11:48:48;101449.91;;;26.47
37452;BMP280;23314;51.114;6.900;2023-07-13T11:51:25;101435.72;;;26.48
37452;BMP280;23314;51.114;6.900;2023-07-13T11:53:53;101428.47;;;26.57
37452;BMP280;23314;51.114;6.900;2023-07-13T11:56:19;101424.97;;;26.56
37452;BMP280;23314;51.114;6.900;2023-07-13T11:58:48;101426.53;;;26.52
37452;BMP280;23314;51.114;6.900;2023-07-13T12:01:21;101431.78;;;26.44
37452;BMP280;23314;51.114;6.900;2023-07-13T12:03:47;101432.06;;;26.29
37452;BMP280;23314;51.114;6.900;2023-07-13T12:06:28;101425.41;;;26.24
37452;BMP280;23314;51.114;6.900;2023-07-13T12:09:03;101420.13;;;26.32
37452;BMP280;23314;51.114;6.900;2023-07-13T12:11:29;101419.28;;;26.54
37452;BMP280;23314;51.114;6.900;2023-07-13T12:13:54;101408.69;;;26.75
37452;BMP280;23314;51.114;6.900;2023-07-13T12:16:31;101416.63;;;26.84
37452;BMP280;23314;51.114;6.900;2023-07-13T12:18:59;101411.03;;;27.01
37452;BMP280;23314;51.114;6.900;2023-07-13T12:21:38;101410.78;;;27.30
37452;BMP280;23314;51.114;6.900;2023-07-13T12:24:05;101404.00;;;27.36
37452;BMP280;23314;51.114;6.900;2023-07-13T12:26:38;101403.06;;;27.34
37452;BMP280;23314;51.114;6.900;2023-07-13T12:29:06;101415.44;;;27.65
37452;BMP280;23314;51.114;6.900;2023-07-13T12:31:43;101399.84;;;27.79
37452;BMP280;23314;51.114;6.900;2023-07-13T12:34:21;101413.06;;;28.00
37452;BMP280;23314;51.114;6.900;2023-07-13T12:36:50;101396.41;;;28.17
37452;BMP280;23314;51.114;6.900;2023-07-13T12:39:36;101399.56;;;28.21
37452;BMP280;23314;51.114;6.900;2023-07-13T12:42:32;101413.22;;;28.26
37452;BMP280;23314;51.114;6.900;2023-07-13T12:45:18;101414.94;;;28.29
37452;BMP280;23314;51.114;6.900;2023-07-13T12:47:48;101408.28;;;28.57
37452;BMP280;23314;51.114;6.900;2023-07-13T12:50:19;101404.84;;;28.70
37452;BMP280;23314;51.114;6.900;2023-07-13T12:52:54;101399.78;;;28.74
37452;BMP280;23314;51.114;6.900;2023-07-13T12:55:21;101410.63;;;28.85
37452;BMP280;23314;51.114;6.900;2023-07-13T12:57:54;101416.22;;;28.93
37452;BMP280;23314;51.114;6.900;2023-07-13T13:00:32;101408.81;;;28.88
37452;BMP280;23314;51.114;6.900;2023-07-13T13:03:05;101409.06;;;28.71
37452;BMP280;23314;51.114;6.900;2023-07-13T13:05:32;101399.63;;;28.34
37452;BMP280;23314;51.114;6.900;2023-07-13T13:07:58;101405.78;;;28.21
37452;BMP280;23314;51.114;6.900;2023-07-13T13:10:24;101395.28;;;28.25
37452;BMP280;23314;51.114;6.900;2023-07-13T13:12:50;101406.88;;;28.50
37452;BMP280;23314;51.114;6.900;2023-07-13T13:15:15;101406.97;;;28.64
37452;BMP280;23314;51.114;6.900;2023-07-13T13:17:42;101404.44;;;28.66
37452;BMP280;23314;51.114;6.900;2023-07-13T13:20:19;101411.31;;;28.73
37452;BMP280;23314;51.114;6.900;2023-07-13T13:22:45;101405.16;;;28.66
37452;BMP280;23314;51.114;6.900;2023-07-13T13:25:14;101409.91;;;28.66
37452;BMP280;23314;51.114;6.900;2023-07-13T13:27:41;101409.34;;;28.86
37452;BMP280;23314;51.114;6.900;2023-07-13T13:30:15;101408.28;;;28.90
37452;BMP280;23314;51.114;6.900;2023-07-13T13:32:46;101393.50;;;28.93
37452;BMP280;23314;51.114;6.900;2023-07-13T13:35:16;101401.19;;;28.81
37452;BMP280;23314;51.114;6.900;2023-07-13T13:37:43;101397.38;;;28.71
37452;BMP280;23314;51.114;6.900;2023-07-13T13:40:17;101395.69;;;28.81
37452;BMP280;23314;51.114;6.900;2023-07-13T13:42:42;101387.38;;;28.86
37452;BMP280;23314;51.114;6.900;2023-07-13T13:45:09;101398.28;;;28.92
37452;BMP280;23314;51.114;6.900;2023-07-13T13:47:35;101394.63;;;28.84
37452;BMP280;23314;51.114;6.900;2023-07-13T13:50:01;101398.69;;;28.96
37452;BMP280;23314;51.114;6.900;2023-07-13T13:52:27;101400.22;;;29.11
37452;BMP280;23314;51.114;6.900;2023-07-13T13:54:52;101394.78;;;29.05
37452;BMP280;23314;51.114;6.900;2023-07-13T13:57:24;101397.47;;;29.11
37452;BMP280;23314;51.114;6.900;2023-07-13T13:59:51;101395.97;;;29.23
37452;BMP280;23314;51.114;6.900;2023-07-13T14:02:26;101402.09;;;29.29
37452;BMP280;23314;51.114;6.900;2023-07-13T14:04:58;101393.34;;;29.31
37452;BMP280;23314;51.114;6.900;2023-07-13T14:07:25;101391.03;;;29.48
37452;BMP280;23314;51.114;6.900;2023-07-13T14:09:52;101403.38;;;29.41
37452;BMP280;23314;51.114;6.900;2023-07-13T14:12:18;101408.78;;;29.47
37452;BMP280;23314;51.114;6.900;2023-07-13T14:14:43;101396.84;;;29.58
37452;BMP280;23314;51.114;6.900;2023-07-13T14:17:29;101400.53;;;29.60
37452;BMP280;23314;51.114;6.900;2023-07-13T14:19:55;101405.09;;;29.44
37452;BMP280;23314;51.114;6.900;2023-07-13T14:22:26;101402.44;;;29.52
37452;BMP280;23314;51.114;6.900;2023-07-13T14:24:55;101402.31;;;29.71
37452;BMP280;23314;51.114;6.900;2023-07-13T14:27:22;101404.06;;;29.95